sensor_id;sensor_type;location;lat;lon;timestamp;pressure;altitude;pressure_sealevel;temperature;humidity
42001;BME280;27689;48.390;10.856;2023-05-27T00:00:31;96754.88;;;14.74;73.90
42001;BME280;27689;48.390;10.856;2023-05-27T00:03:16;96743.63;;;14.64;74.33
42001;BME280;27689;48.390;10.856;2023-05-27T00:06:00;96750.56;;;14.65;74.02
42001;BME280;27689;48.390;10.856;2023-05-27T00:08:45;96753.50;;;14.62;74.43
42001;BME280;27689;48.390;10.856;2023-05-27T00:11:29;96752.66;;;14.61;73.70
42001;BME280;27689;48.390;10.856;2023-05-27T00:14:17;96753.66;;;14.60;73.42
42001;BME280;27689;48.390;10.856;2023-05-27T00:17:01;96759.22;;;14.57;73.52
42001;BME280;27689;48.390;10.856;2023-05-27T00:19:47;96759.56;;;14.54;73.74
42001;BME280;27689;48.390;10.856;2023-05-27T00:22:32;96748.78;;;14.48;73.61
42001;BME280;27689;48.390;10.856;2023-05-27T00:25:16;96756.03;;;14.45;73.67
42001;BME280;27689;48.390;10.856;2023-05-27T00:28:04;96759.66;;;14.44;74.28
42001;BME280;27689;48.390;10.856;2023-05-27T00:30:48;96757.63;;;14.38;73.57
42001;BME280;27689;48.390;10.856;2023-05-27T00:33:32;96746.00;;;14.31;74.19
42001;BME280;27689;48.390;10.856;2023-05-27T00:36:16;96755.28;;;14.35;73.85
42001;BME280;27689;48.390;10.856;2023-05-27T00:39:01;96752.25;;;14.30;74.06
42001;BME280;27689;48.390;10.856;2023-05-27T00:41:48;96751.59;;;14.28;73.45
42001;BME280;27689;48.390;10.856;2023-05-27T00:44:33;96754.03;;;14.22;74.00
42001;BME280;27689;48.390;10.856;2023-05-27T00:47:17;96750.19;;;14.16;74.27
42001;BME280;27689;48.390;10.856;2023-05-27T00:50:03;96753.66;;;14.17;73.45
42001;BME280;27689;48.390;10.856;2023-05-27T00:52:47;96757.06;;;14.09;74.20
42001;BME280;27689;48.390;10.856;2023-05-27T00:55:31;96750.47;;;14.13;73.11
42001;BME280;27689;48.390;10.856;2023-05-27T00:58:15;96750.28;;;14.06;73.11
42001;BME280;27689;48.390;10.856;2023-05-27T01:01:00;96743.66;;;14.02;73.32
42001;BME280;27689;48.390;10.856;2023-05-27T01:03:44;96743.50;;;14.04;73.04
42001;BME280;27689;48.390;10.856;2023-05-27T01:06:37;96747.94;;;14.03;73.49
42001;BME280;27689;48.390;10.856;2023-05-27T01:09:41;96745.31;;;14.03;72.17
42001;BME280;27689;48.390;10.856;2023-05-27T01:15:22;96746.59;;;13.99;71.95
42001;BME280;27689;48.390;10.856;2023-05-27T01:18:08;96742.16;;;14.00;71.44
42001;BME280;27689;48.390;10.856;2023-05-27T01:20:53;96739.00;;;13.96;71.58
42001;BME280;27689;48.390;10.856;2023-05-27T01:23:43;96742.09;;;13.92;71.36
42001;BME280;27689;48.390;10.856;2023-05-27T01:26:28;96737.81;;;13.91;71.50
42001;BME280;27689;48.390;10.856;2023-05-27T01:29:12;96728.16;;;13.82;72.24
42001;BME280;27689;48.390;10.856;2023-05-27T01:35:02;96729.13;;;13.81;72.42
42001;BME280;27689;48.390;10.856;2023-05-27T01:37:52;96727.81;;;13.76;72.37
42001;BME280;27689;48.390;10.856;2023-05-27T01:40:38;96725.47;;;13.73;71.67
42001;BME280;27689;48.390;10.856;2023-05-27T01:43:22;96724.78;;;13.71;72.00
42001;BME280;27689;48.390;10.856;2023-05-27T01:46:06;96726.75;;;13.69;72.19
42001;BME280;27689;48.390;10.856;2023-05-27T01:48:50;96723.44;;;13.67;71.73
42001;BME280;27689;48.390;10.856;2023-05-27T01:51:34;96726.41;;;13.64;71.75
42001;BME280;27689;48.390;10.856;2023-05-27T01:54:18;96722.25;;;13.62;71.90
42001;BME280;27689;48.390;10.856;2023-05-27T01:57:02;96718.63;;;13.63;71.19
42001;BME280;27689;48.390;10.856;2023-05-27T01:59:46;96720.75;;;13.59;71.14
42001;BME280;27689;48.390;10.856;2023-05-27T02:02:30;96724.78;;;13.54;71.53
42001;BME280;27689;48.390;10.856;2023-05-27T02:05:15;96720.44;;;13.45;72.06
42001;BME280;27689;48.390;10.856;2023-05-27T02:07:59;96723.75;;;13.47;71.21
42001;BME280;27689;48.390;10.856;2023-05-27T02:10:43;96719.75;;;13.43;71.39
42001;BME280;27689;48.390;10.856;2023-05-27T02:13:27;96714.78;;;13.39;71.58
42001;BME280;27689;48.390;10.856;2023-05-27T02:16:11;96726.59;;;13.35;72.00
42001;BME280;27689;48.390;10.856;2023-05-27T02:18:56;96723.78;;;13.37;71.40
42001;BME280;27689;48.390;10.856;2023-05-27T02:21:40;96719.59;;;13.26;71.85
42001;BME280;27689;48.390;10.856;2023-05-27T02:24:24;96721.81;;;13.21;71.81
42001;BME280;27689;48.390;10.856;2023-05-27T02:27:08;96718.69;;;13.18;71.72
42001;BME280;27689;48.390;10.856;2023-05-27T02:29:52;96717.03;;;13.17;71.42
42001;BME280;27689;48.390;10.856;2023-05-27T02:32:36;96717.56;;;13.11;72.20
42001;BME280;27689;48.390;10.856;2023-05-27T02:35:21;96715.22;;;13.07;71.93
42001;BME280;27689;48.390;10.856;2023-05-27T02:38:04;96718.00;;;13.06;71.68
42001;BME280;27689;48.390;10.856;2023-05-27T02:40:49;96715.53;;;13.04;71.74
42001;BME280;27689;48.390;10.856;2023-05-27T02:43:33;96717.34;;;13.04;71.34
42001;BME280;27689;48.390;10.856;2023-05-27T02:46:16;96717.50;;;13.02;71.87
42001;BME280;27689;48.390;10.856;2023-05-27T02:49:01;96715.03;;;12.91;72.38
42001;BME280;27689;48.390;10.856;2023-05-27T02:51:44;96715.72;;;12.93;71.58
42001;BME280;27689;48.390;10.856;2023-05-27T02:54:28;96720.63;;;12.88;71.73
42001;BME280;27689;48.390;10.856;2023-05-27T02:57:12;96718.13;;;12.87;72.37
42001;BME280;27689;48.390;10.856;2023-05-27T02:59:56;96715.78;;;12.84;72.33
42001;BME280;27689;48.390;10.856;2023-05-27T03:02:40;96721.31;;;12.81;72.16
42001;BME280;27689;48.390;10.856;2023-05-27T03:05:24;96706.50;;;12.80;71.67
42001;BME280;27689;48.390;10.856;2023-05-27T03:08:08;96712.75;;;12.79;71.97
42001;BME280;27689;48.390;10.856;2023-05-27T03:10:52;96704.50;;;12.74;71.92
42001;BME280;27689;48.390;10.856;2023-05-27T03:13:36;96703.94;;;12.70;72.45
42001;BME280;27689;48.390;10.856;2023-05-27T03:16:20;96711.28;;;12.66;72.50
42001;BME280;27689;48.390;10.856;2023-05-27T03:19:06;96707.47;;;12.61;72.69
42001;BME280;27689;48.390;10.856;2023-05-27T03:21:52;96713.38;;;12.63;72.64
42001;BME280;27689;48.390;10.856;2023-05-27T03:24:36;96705.81;;;12.60;73.13
42001;BME280;27689;48.390;10.856;2023-05-27T03:27:19;96703.59;;;12.55;73.17
42001;BME280;27689;48.390;10.856;2023-05-27T03:30:05;96710.25;;;12.50;73.67
42001;BME280;27689;48.390;10.856;2023-05-27T03:32:49;96712.34;;;12.46;73.55
42001;BME280;27689;48.390;10.856;2023-05-27T03:35:33;96714.16;;;12.46;73.65
42001;BME280;27689;48.390;10.856;2023-05-27T03:38:17;96715.25;;;12.43;73.67
42001;BME280;27689;48.390;10.856;2023-05-27T03:41:01;96713.06;;;12.39;74.11
42001;BME280;27689;48.390;10.856;2023-05-27T03:43:45;96711.53;;;12.36;74.13
42001;BME280;27689;48.390;10.856;2023-05-27T03:46:29;96708.06;;;12.35;73.79
42001;BME280;27689;48.390;10.856;2023-05-27T03:49:13;96704.38;;;12.28;73.92
42001;BME280;27689;48.390;10.856;2023-05-27T03:51:57;96708.81;;;12.28;74.19
42001;BME280;27689;48.390;10.856;2023-05-27T03:54:42;96717.78;;;12.25;74.32
42001;BME280;27689;48.390;10.856;2023-05-27T03:57:26;96711.84;;;12.23;74.66
42001;BME280;27689;48.390;10.856;2023-05-27T04:00:11;96716.41;;;12.21;74.61
42001;BME280;27689;48.390;10.856;2023-05-27T04:02:56;96714.75;;;12.20;74.20
42001;BME280;27689;48.390;10.856;2023-05-27T04:05:40;96708.16;;;12.16;75.32
42001;BME280;27689;48.390;10.856;2023-05-27T04:08:24;96715.03;;;12.17;74.77
42001;BME280;27689;48.390;10.856;2023-05-27T04:11:12;96710.47;;;12.19;74.34
42001;BME280;27689;48.390;10.856;2023-05-27T04:13:56;96710.34;;;12.21;74.47
42001;BME280;27689;48.390;10.856;2023-05-27T04:16:40;96705.91;;;12.21;74.38
42001;BME280;27689;48.390;10.856;2023-05-27T04:19:24;96714.19;;;12.26;74.12
42001;BME280;27689;48.390;10.856;2023-05-27T04:22:09;96708.41;;;12.23;74.03
42001;BME280;27689;48.390;10.856;2023-05-27T04:24:53;96703.28;;;12.21;74.08
42001;BME280;27689;48.390;10.856;2023-05-27T04:27:37;96697.34;;;12.19;73.93
42001;BME280;27689;48.390;10.856;2023-05-27T04:30:21;96710.34;;;12.21;74.16
42001;BME280;27689;48.390;10.856;2023-05-27T04:33:06;96706.75;;;12.22;73.88
42001;BME280;27689;48.390;10.856;2023-05-27T04:35:50;96709.63;;;12.19;75.24
42001;BME280;27689;48.390;10.856;2023-05-27T04:38:37;96718.06;;;12.22;74.61
42001;BME280;27689;48.390;10.856;2023-05-27T04:41:21;96718.75;;;12.24;74.16
42001;BME280;27689;48.390;10.856;2023-05-27T04:44:11;96722.34;;;12.23;74.79
42001;BME280;27689;48.390;10.856;2023-05-27T04:46:55;96714.75;;;12.20;74.57
42001;BME280;27689;48.390;10.856;2023-05-27T04:49:39;96719.03;;;12.31;73.66
42001;BME280;27689;48.390;10.856;2023-05-27T04:52:23;96724.28;;;12.31;74.09
42001;BME280;27689;48.390;10.856;2023-05-27T04:55:09;96708.63;;;12.39;72.75
42001;BME280;27689;48.390;10.856;2023-05-27T04:57:53;96708.91;;;12.36;73.09
42001;BME280;27689;48.390;10.856;2023-05-27T05:00:37;96714.03;;;12.38;73.49
42001;BME280;27689;48.390;10.856;2023-05-27T05:03:33;96710.84;;;12.44;73.07
42001;BME280;27689;48.390;10.856;2023-05-27T05:06:34;96718.81;;;12.52;72.46
42001;BME280;27689;48.390;10.856;2023-05-27T05:09:18;96716.72;;;12.55;72.69
42001;BME280;27689;48.390;10.856;2023-05-27T05:12:02;96715.63;;;12.58;72.03
42001;BME280;27689;48.390;10.856;2023-05-27T05:14:48;96722.09;;;12.63;72.44
42001;BME280;27689;48.390;10.856;2023-05-27T05:17:33;96721.03;;;12.56;73.13
42001;BME280;27689;48.390;10.856;2023-05-27T05:20:17;96720.59;;;12.61;73.34
42001;BME280;27689;48.390;10.856;2023-05-27T05:23:01;96717.09;;;12.70;72.35
42001;BME280;27689;48.390;10.856;2023-05-27T05:25:45;96715.44;;;12.69;73.71
42001;BME280;27689;48.390;10.856;2023-05-27T05:28:31;96718.47;;;12.74;73.33
42001;BME280;27689;48.390;10.856;2023-05-27T05:31:14;96722.00;;;12.83;72.84
42001;BME280;27689;48.390;10.856;2023-05-27T05:33:59;96715.50;;;12.87;72.34
42001;BME280;27689;48.390;10.856;2023-05-27T05:36:43;96713.63;;;12.97;72.01
42001;BME280;27689;48.390;10.856;2023-05-27T05:39:27;96718.91;;;12.97;72.68
42001;BME280;27689;48.390;10.856;2023-05-27T05:42:10;96717.50;;;13.02;71.96
42001;BME280;27689;48.390;10.856;2023-05-27T05:44:54;96717.72;;;13.09;71.54
42001;BME280;27689;48.390;10.856;2023-05-27T05:47:38;96723.94;;;13.18;71.25
42001;BME280;27689;48.390;10.856;2023-05-27T05:50:22;96723.03;;;13.27;71.03
42001;BME280;27689;48.390;10.856;2023-05-27T05:53:06;96716.13;;;13.26;71.79
42001;BME280;27689;48.390;10.856;2023-05-27T05:55:50;96715.16;;;13.27;72.50
42001;BME280;27689;48.390;10.856;2023-05-27T05:58:34;96720.88;;;13.40;72.66
42001;BME280;27689;48.390;10.856;2023-05-27T06:01:18;96717.66;;;13.46;72.24
42001;BME280;27689;48.390;10.856;2023-05-27T06:04:03;96722.00;;;13.55;71.94
42001;BME280;27689;48.390;10.856;2023-05-27T06:06:48;96723.06;;;13.62;71.68
42001;BME280;27689;48.390;10.856;2023-05-27T06:09:32;96725.47;;;13.73;70.41
42001;BME280;27689;48.390;10.856;2023-05-27T06:12:16;96725.84;;;13.79;70.87
42001;BME280;27689;48.390;10.856;2023-05-27T06:15:00;96719.97;;;13.85;70.33
42001;BME280;27689;48.390;10.856;2023-05-27T06:17:44;96725.81;;;13.96;70.20
42001;BME280;27689;48.390;10.856;2023-05-27T06:20:28;96732.28;;;14.02;70.18
42001;BME280;27689;48.390;10.856;2023-05-27T06:23:13;96725.94;;;14.12;71.46
42001;BME280;27689;48.390;10.856;2023-05-27T06:25:57;96730.47;;;14.20;71.37
42001;BME280;27689;48.390;10.856;2023-05-27T06:28:41;96731.19;;;14.30;70.76
42001;BME280;27689;48.390;10.856;2023-05-27T06:31:25;96723.56;;;14.45;70.32
42001;BME280;27689;48.390;10.856;2023-05-27T06:34:10;96718.81;;;14.49;70.75
42001;BME280;27689;48.390;10.856;2023-05-27T06:36:54;96725.97;;;14.64;70.81
42001;BME280;27689;48.390;10.856;2023-05-27T06:39:39;96728.50;;;14.74;69.57
42001;BME280;27689;48.390;10.856;2023-05-27T06:42:23;96727.56;;;14.83;70.61
42001;BME280;27689;48.390;10.856;2023-05-27T06:45:08;96725.63;;;14.93;67.16
42001;BME280;27689;48.390;10.856;2023-05-27T06:47:52;96723.38;;;15.06;67.98
42001;BME280;27689;48.390;10.856;2023-05-27T06:50:36;96719.13;;;15.13;66.93
42001;BME280;27689;48.390;10.856;2023-05-27T06:53:20;96717.81;;;15.26;68.01
42001;BME280;27689;48.390;10.856;2023-05-27T06:56:04;96709.44;;;15.38;64.61
42001;BME280;27689;48.390;10.856;2023-05-27T06:58:48;96718.19;;;15.47;66.78
42001;BME280;27689;48.390;10.856;2023-05-27T07:01:32;96714.78;;;15.63;67.90
42001;BME280;27689;48.390;10.856;2023-05-27T07:04:16;96712.16;;;15.79;63.80
42001;BME280;27689;48.390;10.856;2023-05-27T07:07:02;96715.97;;;15.93;64.05
42001;BME280;27689;48.390;10.856;2023-05-27T07:09:46;96708.34;;;16.06;62.04
42001;BME280;27689;48.390;10.856;2023-05-27T07:12:30;96709.19;;;16.14;62.70
42001;BME280;27689;48.390;10.856;2023-05-27T07:15:14;96712.97;;;16.28;63.94
42001;BME280;27689;48.390;10.856;2023-05-27T07:17:58;96715.25;;;16.39;64.71
42001;BME280;27689;48.390;10.856;2023-05-27T07:20:42;96710.09;;;16.54;62.39
42001;BME280;27689;48.390;10.856;2023-05-27T07:23:26;96707.44;;;16.62;63.38
42001;BME280;27689;48.390;10.856;2023-05-27T07:26:10;96714.53;;;16.78;62.97
42001;BME280;27689;48.390;10.856;2023-05-27T07:28:56;96707.06;;;16.81;62.31
42001;BME280;27689;48.390;10.856;2023-05-27T07:31:40;96717.94;;;16.95;61.91
42001;BME280;27689;48.390;10.856;2023-05-27T07:34:24;96715.09;;;17.04;61.69
42001;BME280;27689;48.390;10.856;2023-05-27T07:37:08;96692.53;;;17.16;57.81
42001;BME280;27689;48.390;10.856;2023-05-27T07:39:52;96702.56;;;17.29;59.87
42001;BME280;27689;48.390;10.856;2023-05-27T07:42:36;96700.50;;;17.39;62.13
42001;BME280;27689;48.390;10.856;2023-05-27T07:45:19;96708.53;;;17.54;60.93
42001;BME280;27689;48.390;10.856;2023-05-27T07:48:05;96706.97;;;17.68;57.40
42001;BME280;27689;48.390;10.856;2023-05-27T07:50:49;96705.50;;;17.88;58.27
42001;BME280;27689;48.390;10.856;2023-05-27T07:53:33;96702.72;;;18.04;58.66
42001;BME280;27689;48.390;10.856;2023-05-27T07:56:18;96701.28;;;18.16;55.92
42001;BME280;27689;48.390;10.856;2023-05-27T07:59:02;96702.50;;;18.28;58.35
42001;BME280;27689;48.390;10.856;2023-05-27T08:01:46;96696.22;;;18.44;55.71
42001;BME280;27689;48.390;10.856;2023-05-27T08:04:30;96696.41;;;18.57;57.89
42001;BME280;27689;48.390;10.856;2023-05-27T08:07:14;96691.13;;;18.72;57.43
42001;BME280;27689;48.390;10.856;2023-05-27T08:09:58;96689.78;;;18.76;56.96
42001;BME280;27689;48.390;10.856;2023-05-27T08:12:42;96680.91;;;18.84;54.71
42001;BME280;27689;48.390;10.856;2023-05-27T08:15:27;96694.16;;;18.98;56.05
42001;BME280;27689;48.390;10.856;2023-05-27T08:18:11;96679.22;;;19.12;55.36
42001;BME280;27689;48.390;10.856;2023-05-27T08:20:56;96677.97;;;19.29;54.64
42001;BME280;27689;48.390;10.856;2023-05-27T08:23:40;96678.97;;;19.43;54.51
42001;BME280;27689;48.390;10.856;2023-05-27T08:26:24;96685.88;;;19.59;53.78
42001;BME280;27689;48.390;10.856;2023-05-27T08:29:09;96676.16;;;19.66;53.99
42001;BME280;27689;48.390;10.856;2023-05-27T08:31:53;96666.09;;;19.83;53.23
42001;BME280;27689;48.390;10.856;2023-05-27T08:34:38;96668.91;;;20.02;53.26
42001;BME280;27689;48.390;10.856;2023-05-27T08:37:22;96670.91;;;20.22;51.30
42001;BME280;27689;48.390;10.856;2023-05-27T08:40:10;96657.53;;;20.36;53.05
42001;BME280;27689;48.390;10.856;2023-05-27T08:42:54;96658.59;;;20.42;50.64
42001;BME280;27689;48.390;10.856;2023-05-27T08:45:39;96667.47;;;20.56;52.07
42001;BME280;27689;48.390;10.856;2023-05-27T08:48:24;96658.28;;;20.58;51.60
42001;BME280;27689;48.390;10.856;2023-05-27T08:51:09;96658.44;;;20.50;52.43
42001;BME280;27689;48.390;10.856;2023-05-27T08:53:53;96658.47;;;20.57;53.06
42001;BME280;27689;48.390;10.856;2023-05-27T08:56:39;96659.31;;;20.64;52.88
42001;BME280;27689;48.390;10.856;2023-05-27T08:59:24;96658.25;;;20.93;53.27
42001;BME280;27689;48.390;10.856;2023-05-27T09:02:12;96661.81;;;21.06;51.60
42001;BME280;27689;48.390;10.856;2023-05-27T09:04:56;96656.94;;;21.17;50.86
42001;BME280;27689;48.390;10.856;2023-05-27T09:07:40;96662.84;;;21.05;49.85
42001;BME280;27689;48.390;10.856;2023-05-27T09:10:35;96652.56;;;21.09;51.56
42001;BME280;27689;48.390;10.856;2023-05-27T09:13:29;96648.31;;;21.15;49.38
42001;BME280;27689;48.390;10.856;2023-05-27T09:16:13;96650.63;;;21.24;50.78
42001;BME280;27689;48.390;10.856;2023-05-27T09:18:57;96649.03;;;21.36;50.41
42001;BME280;27689;48.390;10.856;2023-05-27T09:21:41;96647.97;;;21.37;51.04
42001;BME280;27689;48.390;10.856;2023-05-27T09:24:26;96647.81;;;21.52;50.65
42001;BME280;27689;48.390;10.856;2023-05-27T09:27:10;96646.03;;;21.66;50.63
42001;BME280;27689;48.390;10.856;2023-05-27T09:29:55;96639.66;;;21.73;48.59
42001;BME280;27689;48.390;10.856;2023-05-27T09:32:39;96642.91;;;21.69;47.77
42001;BME280;27689;48.390;10.856;2023-05-27T09:35:24;96641.53;;;21.79;49.51
42001;BME280;27689;48.390;10.856;2023-05-27T09:38:08;96644.19;;;21.93;50.09
42001;BME280;27689;48.390;10.856;2023-05-27T09:40:52;96639.91;;;22.18;50.68
42001;BME280;27689;48.390;10.856;2023-05-27T09:43:36;96635.78;;;22.15;49.18
42001;BME280;27689;48.390;10.856;2023-05-27T09:46:20;96633.72;;;22.31;47.37
42001;BME280;27689;48.390;10.856;2023-05-27T09:49:05;96624.47;;;22.40;49.38
42001;BME280;27689;48.390;10.856;2023-05-27T09:51:50;96625.88;;;22.56;48.71
42001;BME280;27689;48.390;10.856;2023-05-27T09:54:35;96633.03;;;22.62;45.98
42001;BME280;27689;48.390;10.856;2023-05-27T09:57:20;96630.16;;;22.76;47.71
42001;BME280;27689;48.390;10.856;2023-05-27T10:00:08;96629.34;;;22.82;46.89
42001;BME280;27689;48.390;10.856;2023-05-27T10:02:56;96630.56;;;22.80;48.08
42001;BME280;27689;48.390;10.856;2023-05-27T10:05:41;96623.31;;;22.94;47.50
42001;BME280;27689;48.390;10.856;2023-05-27T10:08:26;96623.13;;;22.95;45.00
42001;BME280;27689;48.390;10.856;2023-05-27T10:11:11;96620.66;;;22.87;46.76
42001;BME280;27689;48.390;10.856;2023-05-27T10:13:55;96617.97;;;22.94;45.28
42001;BME280;27689;48.390;10.856;2023-05-27T10:16:51;96618.19;;;22.92;45.21
42001;BME280;27689;48.390;10.856;2023-05-27T10:19:35;96614.22;;;23.08;44.72
42001;BME280;27689;48.390;10.856;2023-05-27T10:22:19;96614.94;;;23.28;45.80
42001;BME280;27689;48.390;10.856;2023-05-27T10:25:13;96612.47;;;23.27;44.85
42001;BME280;27689;48.390;10.856;2023-05-27T10:27:58;96617.78;;;23.33;43.96
42001;BME280;27689;48.390;10.856;2023-05-27T10:30:43;96606.53;;;23.25;44.84
42001;BME280;27689;48.390;10.856;2023-05-27T10:33:29;96605.06;;;23.29;43.73
42001;BME280;27689;48.390;10.856;2023-05-27T10:36:22;96597.56;;;23.44;44.16
42001;BME280;27689;48.390;10.856;2023-05-27T10:39:17;96600.78;;;23.59;42.22
42001;BME280;27689;48.390;10.856;2023-05-27T10:42:01;96601.31;;;23.36;41.57
42001;BME280;27689;48.390;10.856;2023-05-27T10:44:46;96597.13;;;23.47;44.40
42001;BME280;27689;48.390;10.856;2023-05-27T10:47:30;96601.56;;;23.66;42.90
42001;BME280;27689;48.390;10.856;2023-05-27T10:50:14;96589.28;;;23.83;43.09
42001;BME280;27689;48.390;10.856;2023-05-27T10:52:59;96585.97;;;23.88;43.07
42001;BME280;27689;48.390;10.856;2023-05-27T10:55:43;96594.69;;;24.02;42.98
42001;BME280;27689;48.390;10.856;2023-05-27T10:58:29;96583.78;;;24.21;40.58
42001;BME280;27689;48.390;10.856;2023-05-27T11:01:14;96583.09;;;24.33;43.54
42001;BME280;27689;48.390;10.856;2023-05-27T11:03:58;96582.06;;;24.52;41.99
42001;BME280;27689;48.390;10.856;2023-05-27T11:06:41;96573.78;;;24.35;39.40
42001;BME280;27689;48.390;10.856;2023-05-27T11:09:26;96574.72;;;24.22;40.12
42001;BME280;27689;48.390;10.856;2023-05-27T11:12:17;96570.38;;;24.21;41.33
42001;BME280;27689;48.390;10.856;2023-05-27T11:15:02;96573.88;;;24.29;41.21
42001;BME280;27689;48.390;10.856;2023-05-27T11:17:46;96567.72;;;24.46;41.00
42001;BME280;27689;48.390;10.856;2023-05-27T11:20:37;96567.63;;;24.53;40.04
42001;BME280;27689;48.390;10.856;2023-05-27T11:23:21;96570.75;;;24.50;40.96
42001;BME280;27689;48.390;10.856;2023-05-27T11:26:20;96557.50;;;24.55;39.26
42001;BME280;27689;48.390;10.856;2023-05-27T11:29:05;96552.22;;;24.67;40.61
42001;BME280;27689;48.390;10.856;2023-05-27T11:31:50;96546.63;;;24.68;41.68
42001;BME280;27689;48.390;10.856;2023-05-27T11:34:35;96540.81;;;24.89;39.09
42001;BME280;27689;48.390;10.856;2023-05-27T11:37:19;96542.59;;;24.95;39.25
42001;BME280;27689;48.390;10.856;2023-05-27T11:40:10;96538.38;;;25.18;37.34
42001;BME280;27689;48.390;10.856;2023-05-27T11:43:00;96533.56;;;25.08;37.53
42001;BME280;27689;48.390;10.856;2023-05-27T11:45:45;96522.47;;;25.05;38.79
42001;BME280;27689;48.390;10.856;2023-05-27T11:48:29;96522.09;;;25.31;38.76
42001;BME280;27689;48.390;10.856;2023-05-27T11:51:13;96522.78;;;25.26;40.88
42001;BME280;27689;48.390;10.856;2023-05-27T11:54:00;96522.56;;;25.40;35.86
42001;BME280;27689;48.390;10.856;2023-05-27T11:56:44;96522.81;;;25.08;38.34
42001;BME280;27689;48.390;10.856;2023-05-27T11:59:29;96517.56;;;25.32;37.40
42001;BME280;27689;48.390;10.856;2023-05-27T12:02:13;96514.66;;;25.56;36.48
42001;BME280;27689;48.390;10.856;2023-05-27T12:04:57;96508.78;;;25.66;38.40
42001;BME280;27689;48.390;10.856;2023-05-27T12:07:41;96510.53;;;25.72;35.92
42001;BME280;27689;48.390;10.856;2023-05-27T12:10:27;96508.53;;;25.68;37.53
42001;BME280;27689;48.390;10.856;2023-05-27T12:13:11;96505.88;;;25.38;36.61
42001;BME280;27689;48.390;10.856;2023-05-27T12:15:55;96504.00;;;25.38;38.90
42001;BME280;27689;48.390;10.856;2023-05-27T12:18:39;96493.13;;;25.86;38.67
42001;BME280;27689;48.390;10.856;2023-05-27T12:21:25;96498.63;;;26.26;39.66
42001;BME280;27689;48.390;10.856;2023-05-27T12:24:10;96482.72;;;26.37;37.96
42001;BME280;27689;48.390;10.856;2023-05-27T12:26:54;96484.72;;;26.41;36.89
42001;BME280;27689;48.390;10.856;2023-05-27T12:29:38;96485.75;;;26.40;35.98
42001;BME280;27689;48.390;10.856;2023-05-27T12:32:22;96480.00;;;26.48;37.51
42001;BME280;27689;48.390;10.856;2023-05-27T12:35:06;96482.56;;;26.55;37.15
42001;BME280;27689;48.390;10.856;2023-05-27T12:37:50;96482.94;;;26.47;33.38
42001;BME280;27689;48.390;10.856;2023-05-27T12:40:35;96482.47;;;26.50;34.40
42001;BME280;27689;48.390;10.856;2023-05-27T12:43:19;96472.66;;;26.72;35.36
42001;BME280;27689;48.390;10.856;2023-05-27T12:46:03;96468.94;;;26.73;33.10
42001;BME280;27689;48.390;10.856;2023-05-27T12:48:47;96467.88;;;26.34;35.67
42001;BME280;27689;48.390;10.856;2023-05-27T12:51:31;96475.34;;;26.44;34.92
42001;BME280;27689;48.390;10.856;2023-05-27T12:54:16;96478.16;;;26.77;34.97
42001;BME280;27689;48.390;10.856;2023-05-27T12:57:00;96464.56;;;26.55;34.62
42001;BME280;27689;48.390;10.856;2023-05-27T12:59:48;96466.94;;;26.80;34.46
42001;BME280;27689;48.390;10.856;2023-05-27T13:02:32;96455.53;;;26.90;33.47
42001;BME280;27689;48.390;10.856;2023-05-27T13:05:17;96455.50;;;27.01;32.62
42001;BME280;27689;48.390;10.856;2023-05-27T13:08:03;96446.94;;;27.04;33.40
42001;BME280;27689;48.390;10.856;2023-05-27T13:10:48;96441.50;;;27.16;33.33
42001;BME280;27689;48.390;10.856;2023-05-27T13:13:32;96436.78;;;27.40;33.16
42001;BME280;27689;48.390;10.856;2023-05-27T13:16:16;96429.78;;;27.56;33.78
42001;BME280;27689;48.390;10.856;2023-05-27T13:19:00;96424.19;;;27.57;33.62
42001;BME280;27689;48.390;10.856;2023-05-27T13:21:44;96422.44;;;27.51;33.54
42001;BME280;27689;48.390;10.856;2023-05-27T13:24:28;96428.38;;;27.53;31.57
42001;BME280;27689;48.390;10.856;2023-05-27T13:27:12;96421.38;;;27.35;32.08
42001;BME280;27689;48.390;10.856;2023-05-27T13:29:56;96421.69;;;27.22;30.70
42001;BME280;27689;48.390;10.856;2023-05-27T13:32:41;96413.72;;;27.11;30.66
42001;BME280;27689;48.390;10.856;2023-05-27T13:35:26;96411.66;;;27.18;31.90
42001;BME280;27689;48.390;10.856;2023-05-27T13:38:10;96417.28;;;27.33;30.62
42001;BME280;27689;48.390;10.856;2023-05-27T13:40:57;96397.41;;;27.17;31.88
42001;BME280;27689;48.390;10.856;2023-05-27T13:43:43;96395.94;;;27.43;33.13
42001;BME280;27689;48.390;10.856;2023-05-27T13:46:27;96396.56;;;27.50;32.80
42001;BME280;27689;48.390;10.856;2023-05-27T13:49:11;96403.50;;;27.63;32.24
42001;BME280;27689;48.390;10.856;2023-05-27T13:51:55;96394.06;;;27.60;31.33
42001;BME280;27689;48.390;10.856;2023-05-27T13:54:39;96401.22;;;27.55;31.65
42001;BME280;27689;48.390;10.856;2023-05-27T13:57:23;96394.78;;;27.39;31.01
42001;BME280;27689;48.390;10.856;2023-05-27T14:00:07;96391.94;;;27.12;32.96
42001;BME280;27689;48.390;10.856;2023-05-27T14:02:52;96387.81;;;26.93;33.77
42001;BME280;27689;48.390;10.856;2023-05-27T14:05:38;96391.13;;;26.66;33.44
42001;BME280;27689;48.390;10.856;2023-05-27T14:08:22;96383.31;;;26.65;34.61
42001;BME280;27689;48.390;10.856;2023-05-27T14:11:07;96378.81;;;26.54;31.97
42001;BME280;27689;48.390;10.856;2023-05-27T14:13:52;96369.78;;;26.20;33.49
42001;BME280;27689;48.390;10.856;2023-05-27T14:16:37;96361.78;;;26.08;32.55
42001;BME280;27689;48.390;10.856;2023-05-27T14:19:21;96369.13;;;26.01;31.98
42001;BME280;27689;48.390;10.856;2023-05-27T14:22:05;96361.97;;;25.78;33.20
42001;BME280;27689;48.390;10.856;2023-05-27T14:24:49;96366.28;;;25.68;33.94
42001;BME280;27689;48.390;10.856;2023-05-27T14:27:33;96364.31;;;25.51;33.70